Time;durP1;ratioP1;P1;durP2;ratioP2;P2;SDS_P1;SDS_P2;PMS_P1;PMS_P2;Temp;Humidity;BMP_temperature;BMP_pressure;BME280_temperature;BME280_humidity;BME280_pressure;Samples;Min_cycle;Max_cycle;Signal;HPM_P1;HPM_P2
2022/06/25 00:01:17;;;;;;;;;;;;;;;-144.47;66.66;53158.00;5088576;28;19965;-65
2022/06/25 00:03:43;;;;;;;;;;;;;;;-144.47;66.74;53163.97;5088519;28;19908;-66
2022/06/25 00:06:08;;;;;;;;;;;;;;;-144.47;66.63;53185.81;5087995;28;19933;-66
2022/06/25 00:08:34;;;;;;;;;;;;;;;-144.47;66.88;53181.84;5075568;28;20022;-63
2022/06/25 00:11:00;;;;;;;;;;;;;;;-144.47;66.78;53154.03;5088920;28;20307;-66
2022/06/25 00:13:25;;;;;;;;;;;;;;;-144.47;67.03;53189.78;5088237;28;19908;-66
2022/06/25 00:15:51;;;;;;;;;;;;;;;-144.47;66.86;53191.78;5087853;28;20107;-67
2022/06/25 00:18:16;;;;;;;;;;;;;;;-144.47;66.82;53219.56;5098354;22;19931;-65
2022/06/25 00:20:42;;;;;;;;;;;;;;;-144.47;66.62;53197.72;5069270;28;19920;-66
2022/06/25 00:23:07;;;;;;;;;;;;;;;-144.47;66.58;53160.00;5069515;28;19930;-66
2022/06/25 00:25:33;;;;;;;;;;;;;;;-144.47;66.36;53163.97;5069941;28;19931;-65
2022/06/25 00:27:58;;;;;;;;;;;;;;;-144.47;66.34;53197.72;5070947;28;19939;-65
2022/06/25 00:30:23;;;;;;;;;;;;;;;-144.47;67.31;53175.88;5089875;28;19995;-67
2022/06/25 00:32:49;;;;;;;;;;;;;;;-144.47;67.12;53173.88;5090080;28;19961;-66
2022/06/25 00:35:14;;;;;;;;;;;;;;;-144.47;67.51;53195.75;5090103;28;19966;-64
2022/06/25 00:37:39;;;;;;;;;;;;;;;-144.47;67.73;53163.97;5090365;28;20293;-65
2022/06/25 00:40:05;;;;;;;;;;;;;;;-144.47;67.56;53163.97;5089822;28;20075;-63
2022/06/25 00:42:30;;;;;;;;;;;;;;;-144.47;67.34;53179.84;5089700;28;19908;-65
2022/06/25 00:44:56;;;;;;;;;;;;;;;-144.47;67.04;53207.66;5089815;28;19944;-65
2022/06/25 00:47:21;;;;;;;;;;;;;;;-144.47;67.32;53187.78;5089774;28;20008;-63
2022/06/25 00:49:46;;;;;;;;;;;;;;;-144.47;67.25;53154.03;5089584;28;19908;-65
2022/06/25 00:52:13;;;;;;;;;;;;;;;-144.47;67.48;53177.88;5090098;28;19915;-65
2022/06/25 00:54:39;;;;;;;;;;;;;;;-144.47;67.54;53183.81;5071377;28;19912;-67
2022/06/25 00:57:06;;;;;;;;;;;;;;;-144.47;68.04;53197.72;5089084;28;19998;-66
2022/06/25 00:59:35;;;;;;;;;;;;;;;-144.47;68.19;53215.59;5089662;28;20386;-62
2022/06/25 01:02:00;;;;;;;;;;;;;;;-144.47;68.18;53203.69;5089905;28;19965;-65
2022/06/25 01:04:25;;;;;;;;;;;;;;;-144.47;68.52;53199.72;5091192;28;19919;-65
2022/06/25 01:06:51;;;;;;;;;;;;;;;-144.47;68.79;53207.66;5093675;28;20020;-65
2022/06/25 01:09:16;;;;;;;;;;;;;;;-144.47;69.03;53187.78;5093634;28;19976;-64
2022/06/25 01:11:41;;;;;;;;;;;;;;;-144.47;69.23;53167.94;5093723;28;19962;-63
2022/06/25 01:14:10;;;;;;;;;;;;;;;-144.47;69.39;53227.53;5093591;28;20406;-66
2022/06/25 01:16:36;;;;;;;;;;;;;;;-144.47;69.13;53199.72;5093800;28;20276;-66
2022/06/25 01:19:05;;;;;;;;;;;;;;;-144.47;69.54;53175.88;5075681;28;20332;-63
2022/06/25 01:21:30;;;;;;;;;;;;;;;-144.47;69.42;53173.88;5093943;28;19908;-66
2022/06/25 01:23:55;;;;;;;;;;;;;;;-144.47;69.44;53165.94;5075788;28;19912;-65
2022/06/25 01:26:20;;;;;;;;;;;;;;;-144.47;69.46;53239.44;5085421;28;19933;-67
2022/06/25 01:28:46;;;;;;;;;;;;;;;-144.47;69.39;53261.28;5092934;28;19960;-66
2022/06/25 01:31:11;;;;;;;;;;;;;;;-144.47;69.56;53195.75;5093931;28;20284;-62
2022/06/25 01:33:36;;;;;;;;;;;;;;;-144.47;69.64;53177.88;5093070;28;19915;-67
2022/06/25 01:36:01;;;;;;;;;;;;;;;-144.47;69.96;53225.53;5093198;28;19923;-67
2022/06/25 01:38:27;;;;;;;;;;;;;;;-144.47;70.29;53203.69;5092885;28;19947;-66
2022/06/25 01:40:52;;;;;;;;;;;;;;;-144.47;70.60;53201.69;5093300;28;19908;-65
2022/06/25 01:43:17;;;;;;;;;;;;;;;-144.47;70.93;53177.88;5092809;28;20045;-66
2022/06/25 01:45:43;;;;;;;;;;;;;;;-144.47;71.24;53177.88;5093244;28;19965;-63
2022/06/25 01:48:08;;;;;;;;;;;;;;;-144.47;71.28;53213.63;5093107;28;19919;-65
2022/06/25 01:50:34;;;;;;;;;;;;;;;-144.47;71.46;53211.63;5093665;28;19915;-65
2022/06/25 01:52:59;;;;;;;;;;;;;;;-144.47;71.38;53257.31;5093383;28;19930;-65
2022/06/25 01:55:25;;;;;;;;;;;;;;;-144.47;71.39;53223.56;5094076;28;19913;-65
2022/06/25 01:57:51;;;;;;;;;;;;;;;-144.47;71.78;53209.66;5074956;28;20003;-62
2022/06/25 02:00:18;;;;;;;;;;;;;;;-144.47;71.85;53237.44;5093856;28;19918;-63
2022/06/25 02:02:44;;;;;;;;;;;;;;;-144.47;71.60;53205.66;5093577;28;20464;-65
2022/06/25 02:05:10;;;;;;;;;;;;;;;-144.47;72.03;53239.44;5093283;28;19999;-65
2022/06/25 02:07:35;;;;;;;;;;;;;;;-144.47;72.11;53213.63;5093055;28;19962;-66
2022/06/25 02:10:00;;;;;;;;;;;;;;;-144.47;72.30;53235.47;5093613;28;19955;-64
2022/06/25 02:12:26;;;;;;;;;;;;;;;-144.47;72.47;53229.50;5092514;28;20002;-65
2022/06/25 02:14:51;;;;;;;;;;;;;;;-144.47;72.58;53249.38;5092670;28;20346;-65
2022/06/25 02:17:16;;;;;;;;;;;;;;;-144.47;72.38;53235.47;5090799;28;19930;-66
2022/06/25 02:19:42;;;;;;;;;;;;;;;-144.47;72.50;53217.59;5074504;28;19912;-65
2022/06/25 02:22:07;;;;;;;;;;;;;;;-144.47;72.33;53211.63;5085214;28;20299;-64
2022/06/25 02:24:32;;;;;;;;;;;;;;;-144.47;71.82;53221.56;5073959;28;19908;-65
2022/06/25 02:26:57;;;;;;;;;;;;;;;-144.47;71.61;53205.66;5091467;28;20384;-64
2022/06/25 02:29:23;;;;;;;;;;;;;;;-144.47;70.93;53235.47;5073882;28;19908;-66
2022/06/25 02:31:48;;;;;;;;;;;;;;;-144.47;70.81;53229.50;5092459;28;20302;-62
2022/06/25 02:34:13;;;;;;;;;;;;;;;-144.47;70.54;53211.63;5092274;28;19908;-64
2022/06/25 02:36:38;;;;;;;;;;;;;;;-144.47;70.56;53223.56;5091949;28;19908;-63
2022/06/25 02:39:04;;;;;;;;;;;;;;;-144.47;70.39;53223.56;5092285;28;19907;-64
2022/06/25 02:41:29;;;;;;;;;;;;;;;-144.47;70.43;53203.69;5092070;28;19908;-68
2022/06/25 02:43:54;;;;;;;;;;;;;;;-144.47;70.10;53245.41;5091855;28;19952;-65
2022/06/25 02:46:19;;;;;;;;;;;;;;;-144.47;69.95;53217.59;5091781;28;19908;-65
2022/06/25 02:48:45;;;;;;;;;;;;;;;-144.47;69.41;53197.72;5091385;28;20012;-67
2022/06/25 02:51:10;;;;;;;;;;;;;;;-144.47;69.49;53197.72;5091047;28;19996;-64
2022/06/25 02:53:35;;;;;;;;;;;;;;;-144.47;69.37;53201.69;5091864;28;20368;-64
2022/06/25 02:58:58;;;;;;;;;;;;;;;-144.47;69.07;53217.59;5091702;28;20009;-64
2022/06/25 03:01:24;;;;;;;;;;;;;;;-144.47;68.81;53235.47;5092185;28;19916;-62
2022/06/25 03:03:50;;;;;;;;;;;;;;;-144.47;68.94;53215.59;5091807;28;20494;-64
2022/06/25 03:06:15;;;;;;;;;;;;;;;-144.47;68.49;53229.50;5088820;28;20121;-65
2022/06/25 03:08:40;;;;;;;;;;;;;;;-144.47;68.36;53183.81;5091646;28;19911;-67
2022/06/25 03:11:05;;;;;;;;;;;;;;;-144.47;68.12;53209.66;5091515;28;19907;-67
2022/06/25 03:13:34;;;;;;;;;;;;;;;-144.47;68.00;53241.44;5091697;28;19930;-64
2022/06/25 03:15:59;;;;;;;;;;;;;;;-144.47;67.47;53209.66;5091358;28;19912;-67
2022/06/25 03:18:24;;;;;;;;;;;;;;;-144.47;67.27;53175.88;5091238;28;19919;-64
2022/06/25 03:20:52;;;;;;;;;;;;;;;-144.47;67.32;53219.56;5091284;28;20191;-67
2022/06/25 03:23:19;;;;;;;;;;;;;;;-144.47;67.13;53201.69;5091059;28;19953;-67
2022/06/25 03:25:44;;;;;;;;;;;;;;;-144.47;66.88;53229.50;5090780;28;20293;-65
2022/06/25 03:28:09;;;;;;;;;;;;;;;-144.47;66.21;53251.34;5090215;28;19950;-66
2022/06/25 03:30:34;;;;;;;;;;;;;;;-144.47;65.91;53213.63;5091136;28;20373;-65
2022/06/25 03:33:00;;;;;;;;;;;;;;;-144.47;66.02;53199.72;5090910;28;20479;-66
2022/06/25 03:35:26;;;;;;;;;;;;;;;-144.47;66.43;53158.00;5090897;28;19916;-66
2022/06/25 03:37:51;;;;;;;;;;;;;;;-144.47;66.75;53201.69;5072338;28;19995;-63
2022/06/25 03:40:17;;;;;;;;;;;;;;;-144.47;66.77;53183.81;5072661;28;19908;-66
2022/06/25 03:42:42;;;;;;;;;;;;;;;-144.47;66.79;53209.66;5088823;28;19908;-66
2022/06/25 03:45:08;;;;;;;;;;;;;;;-144.47;67.01;53169.91;5072407;28;19990;-66
2022/06/25 03:47:33;;;;;;;;;;;;;;;-144.47;66.87;53197.72;5091460;28;20373;-66
2022/06/25 03:49:58;;;;;;;;;;;;;;;-144.47;66.71;53245.41;5073336;28;19908;-65
2022/06/25 03:52:25;;;;;;;;;;;;;;;-144.47;66.53;53195.75;5091098;28;19908;-66
2022/06/25 03:54:50;;;;;;;;;;;;;;;-144.47;66.31;53195.75;5090346;28;20295;-66
2022/06/25 03:57:16;;;;;;;;;;;;;;;-144.47;66.14;53187.78;5090490;28;19912;-63
2022/06/25 03:59:41;;;;;;;;;;;;;;;-144.47;66.20;53191.78;5090747;28;20049;-65
2022/06/25 04:02:06;;;;;;;;;;;;;;;-144.47;65.81;53203.69;5072734;28;19908;-65
2022/06/25 04:04:31;;;;;;;;;;;;;;;-144.47;65.47;53193.75;5089734;28;19916;-62
2022/06/25 04:06:57;;;;;;;;;;;;;;;-144.47;65.52;53205.66;5072205;28;19923;-65
2022/06/25 04:09:22;;;;;;;;;;;;;;;-144.47;65.06;53205.66;5090569;28;19915;-64
2022/06/25 04:11:47;;;;;;;;;;;;;;;-144.47;64.98;53187.78;5090975;28;19908;-62
2022/06/25 04:14:12;;;;;;;;;;;;;;;-144.47;65.13;53197.72;5091280;28;19907;-66
2022/06/25 04:16:37;;;;;;;;;;;;;;;-144.47;64.97;53205.66;5090665;28;19918;-65
2022/06/25 04:19:03;;;;;;;;;;;;;;;-144.47;64.42;53201.69;5090752;28;19969;-65
2022/06/25 04:21:28;;;;;;;;;;;;;;;-144.47;64.53;53199.72;5086233;28;20265;-64
2022/06/25 04:23:53;;;;;;;;;;;;;;;-144.47;64.31;53215.59;5088191;28;19912;-66
2022/06/25 04:26:18;;;;;;;;;;;;;;;-144.47;64.06;53201.69;5082598;28;19908;-64
2022/06/25 04:31:28;;;;;;;;;;;;;;;-144.47;63.37;53215.59;5089263;28;19915;-66
2022/06/25 04:33:53;;;;;;;;;;;;;;;-144.47;63.15;53229.50;5090550;28;19908;-64
2022/06/25 04:36:19;;;;;;;;;;;;;;;-144.47;62.73;53199.72;5089712;28;19912;-64
2022/06/25 04:38:44;;;;;;;;;;;;;;;-144.47;62.81;53205.66;5071432;28;19908;-67
2022/06/25 04:41:09;;;;;;;;;;;;;;;-144.47;62.41;53207.66;5089755;28;19908;-65
2022/06/25 04:43:34;;;;;;;;;;;;;;;-144.47;62.47;53187.78;5090316;28;20376;-67
2022/06/25 04:46:00;;;;;;;;;;;;;;;-144.47;62.04;53227.53;5071760;28;19908;-64
2022/06/25 04:48:25;;;;;;;;;;;;;;;-144.47;62.26;53203.69;5090034;28;19908;-67
2022/06/25 04:50:50;;;;;;;;;;;;;;;-144.47;62.16;53207.66;5089820;28;19908;-66
2022/06/25 04:53:15;;;;;;;;;;;;;;;-144.47;62.43;53203.69;5088168;28;19908;-66
2022/06/25 04:55:42;;;;;;;;;;;;;;;-144.47;61.73;53177.88;5089349;28;20286;-68
2022/06/25 04:58:07;;;;;;;;;;;;;;;-144.47;61.74;53219.56;5063997;28;19915;-67
2022/06/25 05:00:32;;;;;;;;;;;;;;;-144.47;61.51;53175.88;5083187;28;19912;-64
2022/06/25 05:02:58;;;;;;;;;;;;;;;-144.47;61.46;53175.88;5090480;28;20375;-67
2022/06/25 05:05:23;;;;;;;;;;;;;;;-144.47;61.32;53160.00;5090229;28;19918;-66
2022/06/25 05:07:48;;;;;;;;;;;;;;;-144.47;61.14;53183.81;5089473;28;20355;-66
2022/06/25 05:10:13;;;;;;;;;;;;;;;-144.47;61.11;53213.63;5071409;28;20040;-70
2022/06/25 05:15:22;;;;;;;;;;;;;;;-144.47;60.81;53209.66;5081733;28;19927;-69
2022/06/25 05:17:48;;;;;;;;;;;;;;;-144.47;60.74;53193.75;5089525;28;19908;-72
2022/06/25 05:20:13;;;;;;;;;;;;;;;-144.47;60.51;53221.56;5089052;28;20006;-66
2022/06/25 05:22:38;;;;;;;;;;;;;;;-144.47;60.89;53179.84;5090247;28;19908;-67
2022/06/25 05:25:04;;;;;;;;;;;;;;;-144.47;60.54;53203.69;5087297;28;19984;-70
2022/06/25 05:27:29;;;;;;;;;;;;;;;-144.47;60.31;53205.66;5073600;28;19955;-67
2022/06/25 05:29:54;;;;;;;;;;;;;;;-144.47;60.41;53213.63;5086355;28;20002;-68
2022/06/25 05:32:19;;;;;;;;;;;;;;;-144.47;60.30;53177.88;5087880;28;19958;-67
2022/06/25 05:34:45;;;;;;;;;;;;;;;-144.47;60.72;53187.78;5071107;28;19938;-68
2022/06/25 05:37:11;;;;;;;;;;;;;;;-144.47;60.62;53181.84;5089255;28;19915;-65
2022/06/25 05:39:36;;;;;;;;;;;;;;;-144.47;60.99;53211.63;5089309;28;19919;-68
2022/06/25 05:42:03;;;;;;;;;;;;;;;-144.47;60.74;53175.88;5071206;28;19912;-67
2022/06/25 05:44:28;;;;;;;;;;;;;;;-144.47;60.82;53183.81;5084083;28;19950;-66
2022/06/25 05:46:53;;;;;;;;;;;;;;;-144.47;60.60;53191.78;5088801;28;19958;-69
2022/06/25 05:49:19;;;;;;;;;;;;;;;-144.47;60.63;53193.75;5082744;28;19908;-67
2022/06/25 05:51:44;;;;;;;;;;;;;;;-144.47;60.79;53217.59;5092365;28;19972;-68
2022/06/25 05:54:09;;;;;;;;;;;;;;;-144.47;60.89;53171.91;5072648;28;20373;-65
2022/06/25 05:56:34;;;;;;;;;;;;;;;-144.47;60.85;53201.69;5091261;28;19923;-66
2022/06/25 05:59:00;;;;;;;;;;;;;;;-144.47;61.21;53205.66;5089949;28;19908;-70
2022/06/25 06:01:25;;;;;;;;;;;;;;;-144.47;61.06;53205.66;5091677;28;19916;-67
2022/06/25 06:03:50;;;;;;;;;;;;;;;-144.47;61.18;53227.53;5077978;28;19908;-68
2022/06/25 06:06:15;;;;;;;;;;;;;;;-144.47;61.24;53231.50;5091581;28;19920;-72
2022/06/25 06:08:41;;;;;;;;;;;;;;;-144.47;60.92;53229.50;5084445;28;20440;-66
2022/06/25 06:11:06;;;;;;;;;;;;;;;-144.47;61.20;53181.84;5087283;28;19916;-68
2022/06/25 06:13:31;;;;;;;;;;;;;;;-144.47;61.34;53231.50;5091807;28;20404;-66
2022/06/25 06:15:56;;;;;;;;;;;;;;;-144.47;61.54;53201.69;5092935;28;19912;-69
2022/06/25 06:20:57;;;;;;;;;;;;;;;-144.47;61.34;53205.66;5068722;28;19928;-68
2022/06/25 06:23:23;;;;;;;;;;;;;;;-144.47;61.46;53211.63;5063460;28;19923;-64
2022/06/25 06:25:48;;;;;;;;;;;;;;;-144.47;61.52;53217.59;5071207;28;19908;-66
2022/06/25 06:28:13;;;;;;;;;;;;;;;-144.47;61.26;53203.69;5071707;28;20413;-66
2022/06/25 06:30:38;;;;;;;;;;;;;;;-144.47;60.94;53183.81;5089329;28;21222;-64
2022/06/25 06:33:04;;;;;;;;;;;;;;;-144.47;60.64;53205.66;5089197;28;20579;-67
2022/06/25 06:35:29;;;;;;;;;;;;;;;-144.47;60.84;53245.41;5084364;28;19923;-65
2022/06/25 06:37:54;;;;;;;;;;;;;;;-144.47;60.59;53179.84;5090095;28;19908;-68
2022/06/25 06:40:19;;;;;;;;;;;;;;;-144.47;60.29;53229.50;5090345;28;19919;-65
2022/06/25 06:42:44;;;;;;;;;;;;;;;-144.47;60.44;53203.69;5086658;28;19908;-68
2022/06/25 06:45:10;;;;;;;;;;;;;;;-144.47;60.53;53221.56;5089189;28;19912;-66
2022/06/25 06:47:35;;;;;;;;;;;;;;;-144.47;60.32;53207.66;5084706;28;19960;-67
2022/06/25 06:50:00;;;;;;;;;;;;;;;-144.47;60.23;53233.47;5089661;28;19908;-65
2022/06/25 06:52:26;;;;;;;;;;;;;;;-144.47;59.89;53229.50;5089843;28;19943;-68
2022/06/25 06:54:51;;;;;;;;;;;;;;;-144.47;60.02;53207.66;5084249;28;19916;-64
2022/06/25 06:57:16;;;;;;;;;;;;;;;-144.47;59.45;53169.91;5089337;28;19912;-68
2022/06/25 06:59:42;;;;;;;;;;;;;;;-144.47;59.45;53197.72;5089994;28;19912;-67
2022/06/25 07:02:07;;;;;;;;;;;;;;;-144.47;58.84;53181.84;5088104;28;19955;-64
2022/06/25 07:04:32;;;;;;;;;;;;;;;-144.47;58.50;53185.81;5089216;28;19919;-68
2022/06/25 07:06:58;;;;;;;;;;;;;;;-144.47;58.06;53185.81;5089239;28;19984;-64
2022/06/25 07:09:23;;;;;;;;;;;;;;;-144.47;57.93;53205.66;5089421;28;20272;-66
2022/06/25 07:11:49;;;;;;;;;;;;;;;-144.47;57.82;53197.72;5089663;28;19938;-68
2022/06/25 07:14:14;;;;;;;;;;;;;;;-144.47;57.36;53209.66;5088360;28;20395;-65
2022/06/25 07:16:39;;;;;;;;;;;;;;;-144.47;57.23;53193.75;5088763;28;19989;-65
2022/06/25 07:19:05;;;;;;;;;;;;;;;-144.47;57.25;53213.63;5088525;28;19912;-65
2022/06/25 07:21:30;;;;;;;;;;;;;;;-144.47;56.94;53187.78;5089406;28;19918;-66
2022/06/25 07:23:55;;;;;;;;;;;;;;;-144.47;56.25;53195.75;5089885;28;19978;-67
2022/06/25 07:26:21;;;;;;;;;;;;;;;-144.47;56.02;53195.75;5085076;28;20326;-67
2022/06/25 07:28:46;;;;;;;;;;;;;;;-144.47;55.37;53203.69;5089844;28;19908;-65
2022/06/25 07:31:12;;;;;;;;;;;;;;;-144.47;55.80;53175.88;5089872;28;19919;-68
2022/06/25 07:33:37;;;;;;;;;;;;;;;-144.47;55.64;53181.84;5088553;28;20443;-66
2022/06/25 07:36:02;;;;;;;;;;;;;;;-144.47;55.57;53205.66;5089278;28;19912;-67
2022/06/25 07:38:28;;;;;;;;;;;;;;;-144.47;55.32;53167.94;5089531;28;19916;-67
2022/06/25 07:40:53;;;;;;;;;;;;;;;-144.47;54.98;53175.88;5088103;28;19908;-66
2022/06/25 07:43:18;;;;;;;;;;;;;;;-144.47;54.90;53154.03;5088080;28;19916;-65
2022/06/25 07:45:43;;;;;;;;;;;;;;;-144.47;54.72;53193.75;5088983;28;19915;-65
2022/06/25 07:48:09;;;;;;;;;;;;;;;-144.47;54.37;53173.88;5089164;28;19969;-66
2022/06/25 07:53:18;;;;;;;;;;;;;;;-144.47;53.68;53187.78;5085432;28;19970;-65
2022/06/25 07:55:43;;;;;;;;;;;;;;;-144.47;53.89;53156.00;5084866;28;19916;-65
2022/06/25 07:58:08;;;;;;;;;;;;;;;-144.47;53.61;53187.78;5088831;28;19920;-64
2022/06/25 08:00:33;;;;;;;;;;;;;;;-144.47;53.37;53156.00;5087498;28;20066;-66
2022/06/25 08:03:01;;;;;;;;;;;;;;;-144.47;53.34;53185.81;5088146;28;19999;-67
2022/06/25 08:05:26;;;;;;;;;;;;;;;-144.47;53.36;53171.91;5086076;28;20400;-65
2022/06/25 08:07:51;;;;;;;;;;;;;;;-144.47;53.13;53177.88;5087058;28;19958;-68
2022/06/25 08:10:17;;;;;;;;;;;;;;;-144.47;52.83;53161.97;5083291;28;20223;-64
2022/06/25 08:12:42;;;;;;;;;;;;;;;-144.47;52.80;53150.06;5084545;28;20276;-69
2022/06/25 08:15:09;;;;;;;;;;;;;;;-144.47;52.72;53171.91;5084061;28;19916;-66
2022/06/25 08:17:35;;;;;;;;;;;;;;;-144.47;52.41;53169.91;5087695;28;19965;-66
2022/06/25 08:20:00;;;;;;;;;;;;;;;-144.47;52.37;53156.00;5079763;28;19919;-66
2022/06/25 08:22:26;;;;;;;;;;;;;;;-144.47;52.37;53140.13;5084527;28;20337;-68
2022/06/25 08:24:51;;;;;;;;;;;;;;;-144.47;52.21;53171.91;5086271;28;19916;-67
2022/06/25 08:27:16;;;;;;;;;;;;;;;-144.47;51.47;53167.94;5088334;28;19907;-66
2022/06/25 08:29:41;;;;;;;;;;;;;;;-144.47;51.41;53175.88;5088430;28;20368;-67
2022/06/25 08:32:07;;;;;;;;;;;;;;;-144.47;51.27;53163.97;5085474;28;20415;-66
2022/06/25 08:34:32;;;;;;;;;;;;;;;-144.47;51.00;53138.13;5088372;28;19920;-68
2022/06/25 08:36:57;;;;;;;;;;;;;;;-144.47;50.88;53150.06;5087546;28;19926;-65
2022/06/25 08:39:22;;;;;;;;;;;;;;;-144.47;50.95;53142.09;5088458;28;19919;-68
2022/06/25 08:41:48;;;;;;;;;;;;;;;-144.47;49.93;53150.06;5087867;28;19934;-68
2022/06/25 08:44:13;;;;;;;;;;;;;;;-144.47;49.58;53146.09;5081315;28;19938;-66
2022/06/25 08:46:39;;;;;;;;;;;;;;;-144.47;49.67;53132.19;5086853;28;19916;-66
2022/06/25 08:49:05;;;;;;;;;;;;;;;-144.47;49.41;53144.09;5087523;28;19991;-66
2022/06/25 08:51:30;;;;;;;;;;;;;;;-144.47;49.13;53106.34;5088492;28;19938;-68
2022/06/25 08:53:56;;;;;;;;;;;;;;;-144.47;48.84;53130.19;5085966;28;19912;-65
2022/06/25 08:56:21;;;;;;;;;;;;;;;-144.47;48.74;53132.19;5087438;28;19912;-70
2022/06/25 08:58:48;;;;;;;;;;;;;;;-144.47;48.29;53108.34;5087658;28;19946;-67
2022/06/25 09:01:13;;;;;;;;;;;;;;;-144.47;48.21;53152.03;5086234;28;19919;-67
2022/06/25 09:03:39;;;;;;;;;;;;;;;-144.47;48.12;53158.00;5087773;28;19908;-67
2022/06/25 09:06:13;;;;;;;;;;;;;;;-144.47;47.82;53154.03;5086843;28;20392;-66
2022/06/25 09:08:38;;;;;;;;;;;;;;;-144.47;47.25;53142.09;5087325;28;19952;-69
2022/06/25 09:11:05;;;;;;;;;;;;;;;-144.47;46.25;53124.22;5087229;28;19962;-69
2022/06/25 09:13:30;;;;;;;;;;;;;;;-144.47;46.40;53150.06;5085017;28;19919;-67
2022/06/25 09:15:56;;;;;;;;;;;;;;;-144.47;45.43;53118.28;5085350;28;20131;-66
2022/06/25 09:18:21;;;;;;;;;;;;;;;-144.47;44.83;53108.34;5086889;28;19966;-66
2022/06/25 09:20:55;;;;;;;;;;;;;;;-144.47;44.79;53142.09;5088455;28;19927;-62
2022/06/25 09:23:20;;;;;;;;;;;;;;;-144.47;44.37;53120.25;5086511;28;19916;-64
2022/06/25 09:25:45;;;;;;;;;;;;;;;-144.47;43.36;53116.28;5087571;28;19919;-66
2022/06/25 09:28:27;;;;;;;;;;;;;;;-144.47;42.85;53130.19;5089538;28;19908;-66
2022/06/25 09:30:53;;;;;;;;;;;;;;;-144.47;43.39;53148.06;5090658;28;20367;-69
2022/06/25 09:33:19;;;;;;;;;;;;;;;-144.47;44.71;53132.19;5090717;28;19937;-65
2022/06/25 09:35:49;;;;;;;;;;;;;;;-144.47;45.15;53126.22;5082032;28;19916;-67
2022/06/25 09:38:16;;;;;;;;;;;;;;;-144.47;46.12;53134.16;5080414;28;20301;-66
2022/06/25 09:40:51;;;;;;;;;;;;;;;-144.47;46.64;53108.34;5090481;28;19914;-68
2022/06/25 09:43:18;;;;;;;;;;;;;;;-144.47;46.02;53144.09;5087366;28;20526;-63
2022/06/25 09:45:44;;;;;;;;;;;;;;;-144.47;46.00;53146.09;5090363;28;20201;-64
2022/06/25 09:48:17;;;;;;;;;;;;;;;-144.47;45.50;53102.38;5089924;28;19942;-67
2022/06/25 09:50:42;;;;;;;;;;;;;;;-144.47;45.58;53181.84;5090372;28;19954;-66
2022/06/25 09:53:08;;;;;;;;;;;;;;;-144.47;45.78;53177.88;5090500;28;20028;-67
2022/06/25 09:55:34;;;;;;;;;;;;;;;-144.47;45.42;53118.28;5089655;28;19916;-64
2022/06/25 09:58:01;;;;;;;;;;;;;;;-144.47;45.25;53128.22;5089435;28;20388;-66
2022/06/25 10:00:26;;;;;;;;;;;;;;;-144.47;45.05;53108.34;5088868;28;19964;-65
2022/06/25 10:02:52;;;;;;;;;;;;;;;-144.47;45.04;53156.00;5088927;28;20173;-66
2022/06/25 10:05:18;;;;;;;;;;;;;;;-144.47;44.78;53136.16;5090061;28;19946;-67
2022/06/25 10:08:04;;;;;;;;;;;;;;;-144.47;44.78;53124.22;5090169;28;20321;-63
2022/06/25 10:10:46;;;;;;;;;;;;;;;-144.47;44.51;53100.41;5090545;28;20380;-65
2022/06/25 10:13:11;;;;;;;;;;;;;;;-144.47;43.56;53086.50;5090039;28;19923;-68
2022/06/25 10:15:37;;;;;;;;;;;;;;;-144.47;43.48;53102.38;5089426;28;19912;-68
2022/06/25 10:18:07;;;;;;;;;;;;;;;-144.47;43.72;53096.41;5088914;28;20265;-69
2022/06/25 10:20:33;;;;;;;;;;;;;;;-144.47;43.59;53110.31;5088320;28;19920;-67
2022/06/25 10:22:59;;;;;;;;;;;;;;;-144.47;43.32;53112.31;5080395;28;19912;-67
2022/06/25 10:25:25;;;;;;;;;;;;;;;-144.47;42.75;53084.50;5090377;28;19919;-68
2022/06/25 10:28:01;;;;;;;;;;;;;;;-144.47;41.58;53104.38;5089206;28;19939;-68
2022/06/25 10:30:46;;;;;;;;;;;;;;;-144.47;41.79;53102.38;5088221;28;20109;-65
2022/06/25 10:33:13;;;;;;;;;;;;;;;-144.47;41.43;53108.34;5088438;28;20295;-69
2022/06/25 10:35:39;;;;;;;;;;;;;;;-144.47;41.27;53090.47;5089307;28;20291;-68
2022/06/25 10:38:04;;;;;;;;;;;;;;;-144.47;40.56;53098.41;5088883;28;20422;-68
2022/06/25 10:40:31;;;;;;;;;;;;;;;-144.47;40.29;53088.47;5090718;28;19976;-67
2022/06/25 10:42:59;;;;;;;;;;;;;;;-144.47;39.09;53092.44;5091259;28;19908;-68
2022/06/25 10:45:25;;;;;;;;;;;;;;;-144.47;39.10;53100.41;5090978;28;19908;-70
2022/06/25 10:47:51;;;;;;;;;;;;;;;-144.47;39.14;53094.44;5090360;28;19922;-65
2022/06/25 10:50:22;;;;;;;;;;;;;;;-144.47;39.16;53102.38;5088273;28;19920;-69
2022/06/25 10:53:03;;;;;;;;;;;;;;;-144.47;39.12;53102.38;5085781;28;19912;-69
2022/06/25 10:55:29;;;;;;;;;;;;;;;-144.47;38.68;53068.63;5087461;28;20015;-68
2022/06/25 10:58:14;;;;;;;;;;;;;;;-144.47;38.14;53080.53;5089621;28;19947;-67
2022/06/25 11:00:54;;;;;;;;;;;;;;;-144.47;37.52;53128.22;5089199;28;20317;-69
2022/06/25 11:03:28;;;;;;;;;;;;;;;-144.47;37.05;53072.59;5089965;28;19973;-67
2022/06/25 11:05:54;;;;;;;;;;;;;;;-144.47;36.82;53076.56;5087442;28;20403;-69
2022/06/25 11:08:22;;;;;;;;;;;;;;;-144.47;36.23;53074.56;5086021;28;19962;-66
2022/06/25 11:10:48;;;;;;;;;;;;;;;-144.47;36.41;53064.66;5089560;28;19912;-66
2022/06/25 11:13:13;;;;;;;;;;;;;;;-144.47;36.90;53082.53;5089017;28;20003;-70
2022/06/25 11:15:39;;;;;;;;;;;;;;;-144.47;37.52;53096.41;5089574;28;20000;-65
2022/06/25 11:18:14;;;;;;;;;;;;;;;-144.47;37.01;53082.53;5089713;28;19920;-68
2022/06/25 11:20:41;;;;;;;;;;;;;;;-144.47;36.85;53068.63;5076932;28;19912;-66
2022/06/25 11:23:10;;;;;;;;;;;;;;;-144.47;36.50;53072.59;5087807;28;19912;-66
2022/06/25 11:28:48;;;;;;;;;;;;;;;-144.47;35.83;53086.50;5088889;28;19934;-67
2022/06/25 11:31:23;;;;;;;;;;;;;;;-144.47;36.40;53086.50;5087840;28;20391;-67
2022/06/25 11:33:49;;;;;;;;;;;;;;;-144.47;36.65;53072.59;5089137;28;19907;-65
2022/06/25 11:36:15;;;;;;;;;;;;;;;-144.47;36.75;53066.63;5091531;28;19923;-66
2022/06/25 11:38:41;;;;;;;;;;;;;;;-144.47;36.67;53066.63;5093287;28;19911;-65
2022/06/25 11:41:06;;;;;;;;;;;;;;;-144.47;37.31;53072.59;5091294;28;20288;-68
2022/06/25 11:43:34;;;;;;;;;;;;;;;-144.47;37.30;53048.75;5085627;28;19908;-69
2022/06/25 11:46:00;;;;;;;;;;;;;;;-144.47;37.14;53098.41;5086497;28;20641;-69
2022/06/25 11:48:26;;;;;;;;;;;;;;;-144.47;36.79;53036.84;5087210;28;20349;-69
2022/06/25 11:51:09;;;;;;;;;;;;;;;-144.47;36.50;53052.72;5088780;28;20469;-66
2022/06/25 11:53:35;;;;;;;;;;;;;;;-144.47;35.91;53100.41;5088590;28;19916;-66
2022/06/25 11:56:02;;;;;;;;;;;;;;;-144.47;35.88;53082.53;5089477;28;19977;-64
2022/06/25 11:58:28;;;;;;;;;;;;;;;-144.47;35.46;53054.72;5089897;28;19908;-68
2022/06/25 12:00:58;;;;;;;;;;;;;;;-144.47;35.31;53078.53;5089886;28;20027;-67
2022/06/25 12:03:24;;;;;;;;;;;;;;;-144.47;35.09;53044.78;5091049;28;19915;-65
2022/06/25 12:05:49;;;;;;;;;;;;;;;-144.47;35.04;53036.84;5088398;28;20573;-65
2022/06/25 12:08:15;;;;;;;;;;;;;;;-144.47;34.57;53042.78;5089177;28;19954;-69
2022/06/25 12:10:42;;;;;;;;;;;;;;;-144.47;34.79;53042.78;5088178;28;19912;-66
2022/06/25 12:13:07;;;;;;;;;;;;;;;-144.47;35.13;53048.75;5088165;28;20389;-67
2022/06/25 12:15:32;;;;;;;;;;;;;;;-144.47;35.61;53048.75;5087642;28;20576;-68
2022/06/25 12:18:05;;;;;;;;;;;;;;;-144.47;35.91;53090.47;5087948;28;19915;-68
2022/06/25 12:20:30;;;;;;;;;;;;;;;-144.47;36.50;53060.66;5088901;22;20007;-63
2022/06/25 12:22:56;;;;;;;;;;;;;;;-144.47;36.21;53052.72;5051257;28;19995;-66
2022/06/25 12:25:25;;;;;;;;;;;;;;;-144.47;36.22;53092.44;5069789;28;19939;-65
2022/06/25 12:27:51;;;;;;;;;;;;;;;-144.47;35.98;53088.47;5070333;28;19908;-67
2022/06/25 12:30:20;;;;;;;;;;;;;;;-144.47;35.96;53098.41;5082884;28;19915;-66
2022/06/25 12:32:47;;;;;;;;;;;;;;;-144.47;35.95;53100.41;5090532;28;19915;-65
2022/06/25 12:35:31;;;;;;;;;;;;;;;-144.47;36.03;53098.41;5089967;28;19912;-65
2022/06/25 12:38:09;;;;;;;;;;;;;;;-144.47;36.05;53078.53;5089309;28;19912;-66
2022/06/25 12:40:37;;;;;;;;;;;;;;;-144.47;36.21;53066.63;5089746;28;20039;-66